Time,TemperatureF,DewpointF,PressureIn,WindDirection,WindDirectionDegrees,WindSpeedMPH,WindSpeedGustMPH,Humidity,HourlyPrecipIn,Conditions,Clouds,dailyrainin,SoftwareType,DateUTC
2013-05-25 00:02:00,46.9,34.5,30.23,NW,315,4.0,9.0,62,0.00,,,0.07,meteohub,2013-05-25 04:02:00,
2013-05-25 00:12:00,46.9,35.1,30.23,NNW,337,1.0,9.0,63,0.00,,,0.00,meteohub,2013-05-25 04:12:00,
2013-05-25 00:22:00,46.9,35.4,30.23,NNW,337,4.0,9.0,64,0.00,,,0.00,meteohub,2013-05-25 04:22:00,
2013-05-25 00:32:00,46.0,34.5,30.23,North,0,6.0,12.0,64,0.00,,,0.00,meteohub,2013-05-25 04:32:00,
2013-05-25 00:42:00,46.0,34.5,30.22,NW,315,2.0,9.0,64,0.00,,,0.00,meteohub,2013-05-25 04:42:00,
2013-05-25 00:52:00,46.0,34.5,30.22,North,0,6.0,9.0,64,0.00,,,0.00,meteohub,2013-05-25 04:52:00,
2013-05-25 01:02:00,46.0,34.2,30.22,North,0,5.0,9.0,63,0.00,,,0.00,meteohub,2013-05-25 05:02:00,
2013-05-25 01:12:00,46.0,34.2,30.22,NW,315,4.0,9.0,63,0.00,,,0.00,meteohub,2013-05-25 05:12:00,
2013-05-25 01:22:00,45.0,33.1,30.22,NE,45,2.0,9.0,63,0.00,,,0.00,meteohub,2013-05-25 05:22:00,
2013-05-25 01:32:00,45.0,33.1,30.22,NW,315,2.0,14.0,63,0.00,,,0.00,meteohub,2013-05-25 05:32:00,
2013-05-25 01:42:00,45.0,32.7,30.21,West,270,2.0,10.0,62,0.00,,,0.00,meteohub,2013-05-25 05:42:00,
2013-05-25 01:52:00,45.0,32.7,30.21,North,0,4.0,12.0,62,0.00,,,0.00,meteohub,2013-05-25 05:52:00,
2013-05-25 02:02:00,45.0,32.7,30.21,NW,315,7.0,11.0,62,0.00,,,0.00,meteohub,2013-05-25 06:02:00,
2013-05-25 02:12:00,45.0,32.7,30.20,NW,315,4.0,11.0,62,0.00,,,0.00,meteohub,2013-05-25 06:12:00,
2013-05-25 02:22:00,45.0,32.7,30.20,NW,315,2.0,11.0,62,0.00,,,0.00,meteohub,2013-05-25 06:22:00,
2013-05-25 02:32:00,45.0,32.7,30.20,West,270,4.0,10.0,62,0.00,,,0.00,meteohub,2013-05-25 06:32:00,
2013-05-25 02:42:00,45.0,32.7,30.20,NW,315,2.0,14.0,62,0.00,,,0.00,meteohub,2013-05-25 06:42:00,
2013-05-25 02:52:00,45.0,32.7,30.20,North,0,7.0,14.0,62,0.00,,,0.00,meteohub,2013-05-25 06:52:00,
2013-05-25 03:02:00,44.1,31.8,30.21,WNW,292,3.0,12.0,62,0.00,,,0.00,meteohub,2013-05-25 07:02:00,
2013-05-25 03:12:00,44.1,31.8,30.20,NW,315,2.0,10.0,62,0.00,,,0.00,meteohub,2013-05-25 07:12:00,
2013-05-25 03:22:00,44.1,31.8,30.20,North,0,4.0,10.0,62,0.00,,,0.00,meteohub,2013-05-25 07:22:00,
2013-05-25 03:32:00,44.1,32.4,30.21,North,0,2.0,9.0,63,0.00,,,0.00,meteohub,2013-05-25 07:32:00,
2013-05-25 03:42:00,44.1,32.4,30.21,NW,315,2.0,10.0,63,0.00,,,0.00,meteohub,2013-05-25 07:42:00,
2013-05-25 03:52:00,44.1,32.7,30.21,NNW,337,4.0,12.0,64,0.00,,,0.00,meteohub,2013-05-25 07:52:00,
2013-05-25 04:02:00,44.1,32.7,30.21,North,0,3.0,12.0,64,0.00,,,0.00,meteohub,2013-05-25 08:02:00,
2013-05-25 04:12:00,44.1,33.1,30.22,NW,315,2.0,11.0,65,0.00,,,0.00,meteohub,2013-05-25 08:12:00,
2013-05-25 04:22:00,44.1,33.1,30.22,West,270,1.0,12.0,65,0.00,,,0.00,meteohub,2013-05-25 08:22:00,
2013-05-25 04:32:00,44.1,33.4,30.22,North,0,3.0,6.0,66,0.00,,,0.00,meteohub,2013-05-25 08:32:00,
2013-05-25 04:42:00,43.0,32.7,30.22,NW,315,2.0,8.0,67,0.00,,,0.00,meteohub,2013-05-25 08:42:00,
2013-05-25 04:52:00,43.0,33.1,30.22,NW,315,4.0,6.0,68,0.00,,,0.00,meteohub,2013-05-25 08:52:00,
2013-05-25 05:02:00,43.0,33.1,30.22,NW,315,2.0,7.0,68,0.00,,,0.00,meteohub,2013-05-25 09:02:00,
2013-05-25 05:12:00,43.0,33.1,30.22,North,0,4.0,7.0,68,0.00,,,0.00,meteohub,2013-05-25 09:12:00,
2013-05-25 05:22:00,43.0,33.4,30.21,NW,315,4.0,7.0,69,0.00,,,0.00,meteohub,2013-05-25 09:22:00,
2013-05-25 05:32:00,43.0,33.4,30.22,North,0,4.0,14.0,69,0.00,,,0.00,meteohub,2013-05-25 09:32:00,
2013-05-25 05:42:00,43.0,33.4,30.22,NW,315,2.0,14.0,69,0.00,,,0.00,meteohub,2013-05-25 09:42:00,
2013-05-25 05:52:00,43.0,33.4,30.22,North,0,2.0,12.0,69,0.00,,,0.00,meteohub,2013-05-25 09:52:00,
2013-05-25 06:02:00,43.0,33.1,30.22,NW,315,3.0,12.0,68,0.00,,,0.00,meteohub,2013-05-25 10:02:00,
2013-05-25 06:12:00,43.0,33.4,30.22,North,0,3.0,12.0,69,0.00,,,0.00,meteohub,2013-05-25 10:12:00,
2013-05-25 06:22:00,43.0,33.4,30.22,NW,315,1.0,11.0,69,0.00,,,0.00,meteohub,2013-05-25 10:22:00,
2013-05-25 06:32:00,43.0,33.8,30.22,NNE,22,7.0,16.0,70,0.00,,,0.00,meteohub,2013-05-25 10:32:00,
2013-05-25 06:42:00,44.1,34.9,30.22,NNW,337,3.0,14.0,70,0.00,,,0.00,meteohub,2013-05-25 10:42:00,
2013-05-25 06:52:00,44.1,34.9,30.23,NW,315,1.0,13.0,70,0.00,,,0.00,meteohub,2013-05-25 10:52:00,
2013-05-25 07:02:00,44.1,34.5,30.23,North,0,6.0,13.0,69,0.00,,,0.00,meteohub,2013-05-25 11:02:00,
2013-05-25 07:12:00,44.1,34.5,30.24,NW,315,2.0,10.0,69,0.00,,,0.00,meteohub,2013-05-25 11:12:00,
2013-05-25 07:22:00,44.1,34.2,30.24,NW,315,6.0,16.0,68,0.00,,,0.00,meteohub,2013-05-25 11:22:00,
2013-05-25 07:32:00,45.0,35.1,30.24,NNW,337,2.0,12.0,68,0.00,,,0.00,meteohub,2013-05-25 11:32:00,
2013-05-25 07:42:00,46.0,35.8,30.24,NW,315,4.0,11.0,67,0.00,,,0.00,meteohub,2013-05-25 11:42:00,
2013-05-25 07:52:00,46.0,35.2,30.25,SSW,202,2.0,12.0,66,0.00,,,0.00,meteohub,2013-05-25 11:52:00,
2013-05-25 08:02:00,46.9,35.4,30.26,NNW,337,2.0,16.0,64,0.00,,,0.00,meteohub,2013-05-25 12:02:00,
2013-05-25 08:12:00,48.0,36.0,30.26,SW,225,2.0,15.0,63,0.00,,,0.00,meteohub,2013-05-25 12:12:00,
2013-05-25 08:32:00,48.9,36.1,30.28,West,270,6.0,-999.0,61,0.00,,,0.00,meteohub,2013-05-25 12:32:00,
2013-05-25 08:42:00,48.9,35.6,30.28,North,0,5.0,9.0,60,0.00,,,0.00,meteohub,2013-05-25 12:42:00,
2013-05-25 08:52:00,50.0,36.3,30.28,NW,315,2.0,12.0,59,0.00,,,0.00,meteohub,2013-05-25 12:52:00,
2013-05-25 09:02:00,51.1,36.3,30.28,North,0,6.0,12.0,57,0.00,,,0.00,meteohub,2013-05-25 13:02:00,
2013-05-25 09:12:00,51.1,36.0,30.28,NW,315,4.0,12.0,56,0.00,,,0.00,meteohub,2013-05-25 13:12:00,
2013-05-25 09:22:00,51.1,35.4,30.28,NW,315,14.0,16.0,55,0.00,,,0.00,meteohub,2013-05-25 13:22:00,
2013-05-25 09:32:00,52.0,36.3,30.28,North,0,4.0,16.0,55,0.00,,,0.00,meteohub,2013-05-25 13:32:00,
2013-05-25 09:42:00,52.0,35.8,30.28,North,0,4.0,12.0,54,0.00,,,0.00,meteohub,2013-05-25 13:42:00,
2013-05-25 09:52:00,52.0,35.4,30.28,North,0,21.0,21.0,53,0.00,,,0.00,meteohub,2013-05-25 13:52:00,
2013-05-25 10:02:00,52.0,34.9,30.28,NE,45,1.0,21.0,52,0.00,,,0.00,meteohub,2013-05-25 14:02:00,
2013-05-25 10:12:00,53.1,36.0,30.27,North,0,2.0,15.0,52,0.00,,,0.00,meteohub,2013-05-25 14:12:00,
2013-05-25 10:22:00,53.1,35.4,30.27,NW,315,7.0,22.0,51,0.00,,,0.00,meteohub,2013-05-25 14:22:00,
2013-05-25 10:32:00,53.1,36.0,30.27,North,0,2.0,17.0,52,0.00,,,0.00,meteohub,2013-05-25 14:32:00,
2013-05-25 10:42:00,53.1,34.9,30.27,West,270,2.0,17.0,50,0.00,,,0.00,meteohub,2013-05-25 14:42:00,
2013-05-25 10:52:00,54.0,35.8,30.27,NW,315,5.0,14.0,50,0.00,,,0.00,meteohub,2013-05-25 14:52:00,
2013-05-25 11:02:00,55.0,36.7,30.27,NW,315,11.0,16.0,50,0.00,,,0.00,meteohub,2013-05-25 15:02:00,
2013-05-25 11:12:00,55.0,35.8,30.28,North,0,3.0,19.0,48,0.00,,,0.00,meteohub,2013-05-25 15:12:00,
2013-05-25 11:22:00,55.9,37.6,30.28,North,0,1.0,15.0,50,0.00,,,0.00,meteohub,2013-05-25 15:22:00,
2013-05-25 11:32:00,55.9,36.5,30.27,North,0,2.0,15.0,48,0.00,,,0.00,meteohub,2013-05-25 15:32:00,
2013-05-25 11:42:00,55.9,36.5,30.26,South,180,2.0,17.0,48,0.00,,,0.00,meteohub,2013-05-25 15:42:00,
2013-05-25 11:52:00,57.0,37.0,30.26,NW,315,5.0,14.0,47,0.00,,,0.00,meteohub,2013-05-25 15:52:00,
2013-05-25 12:02:00,57.0,36.0,30.26,NW,315,8.0,12.0,45,0.00,,,0.00,meteohub,2013-05-25 16:02:00,
2013-05-25 12:12:00,57.0,36.5,30.27,NW,315,12.0,20.0,46,0.00,,,0.00,meteohub,2013-05-25 16:12:00,
2013-05-25 12:22:00,57.9,36.1,30.26,NW,315,6.0,15.0,44,0.00,,,0.00,meteohub,2013-05-25 16:22:00,
2013-05-25 12:32:00,57.9,36.1,30.26,ESE,112,0.0,13.0,44,0.00,,,0.00,meteohub,2013-05-25 16:32:00,
2013-05-25 12:42:00,59.0,37.0,30.26,West,270,4.0,12.0,44,0.00,,,0.00,meteohub,2013-05-25 16:42:00,
2013-05-25 12:52:00,59.0,36.0,30.25,North,0,7.0,22.0,42,0.00,,,0.00,meteohub,2013-05-25 16:52:00,
2013-05-25 13:02:00,59.0,34.7,30.25,North,0,6.0,16.0,40,0.00,,,0.00,meteohub,2013-05-25 17:02:00,
2013-05-25 13:12:00,60.1,36.3,30.25,NW,315,2.0,16.0,41,0.00,,,0.00,meteohub,2013-05-25 17:12:00,
2013-05-25 13:22:00,60.1,35.1,30.25,SSE,157,2.0,16.0,39,0.00,,,0.00,meteohub,2013-05-25 17:22:00,
2013-05-25 13:32:00,61.0,35.8,30.25,NW,315,7.0,16.0,39,0.00,,,0.00,meteohub,2013-05-25 17:32:00,
2013-05-25 13:42:00,61.0,35.2,30.25,NW,315,4.0,14.0,38,0.00,,,0.00,meteohub,2013-05-25 17:42:00,
2013-05-25 13:52:00,62.1,36.1,30.25,NW,315,4.0,14.0,38,0.00,,,0.00,meteohub,2013-05-25 17:52:00,
2013-05-25 14:02:00,62.1,35.4,30.25,NW,315,11.0,12.0,37,0.00,,,0.00,meteohub,2013-05-25 18:02:00,
2013-05-25 14:12:00,62.1,35.4,30.24,NW,315,4.0,14.0,37,0.00,,,0.00,meteohub,2013-05-25 18:12:00,
2013-05-25 14:22:00,63.0,34.2,30.25,North,0,6.0,11.0,34,0.00,,,0.00,meteohub,2013-05-25 18:22:00,
2013-05-25 14:32:00,63.0,34.2,30.26,NNW,337,5.0,14.0,34,0.00,,,0.00,meteohub,2013-05-25 18:32:00,
2013-05-25 14:42:00,63.0,36.3,30.24,NW,315,2.0,13.0,37,0.00,,,0.00,meteohub,2013-05-25 18:42:00,
2013-05-25 14:52:00,63.0,35.6,30.24,NW,315,2.0,13.0,36,0.00,,,0.00,meteohub,2013-05-25 18:52:00,
2013-05-25 15:02:00,64.0,35.8,30.24,NW,315,2.0,19.0,35,0.00,,,0.00,meteohub,2013-05-25 19:02:00,
2013-05-25 15:12:00,64.0,35.1,30.24,NE,45,3.0,14.0,34,0.00,,,0.00,meteohub,2013-05-25 19:12:00,
2013-05-25 15:22:00,64.0,33.6,30.25,North,0,1.0,15.0,32,0.00,,,0.00,meteohub,2013-05-25 19:22:00,
2013-05-25 15:32:00,64.9,34.3,30.24,NW,315,4.0,15.0,32,0.00,,,0.00,meteohub,2013-05-25 19:32:00,
2013-05-25 15:42:00,64.0,33.6,30.25,NW,315,2.0,14.0,32,0.00,,,0.00,meteohub,2013-05-25 19:42:00,
2013-05-25 15:52:00,64.9,33.6,30.24,NE,45,4.0,11.0,31,0.00,,,0.00,meteohub,2013-05-25 19:52:00,
2013-05-25 16:02:00,64.9,34.3,30.24,North,0,14.0,16.0,32,0.00,,,0.00,meteohub,2013-05-25 20:02:00,
2013-05-25 16:12:00,64.9,33.6,30.24,North,0,9.0,19.0,31,0.00,,,0.00,meteohub,2013-05-25 20:12:00,
2013-05-25 16:22:00,64.9,32.0,30.24,NE,45,2.0,14.0,29,0.00,,,0.00,meteohub,2013-05-25 20:22:00,
2013-05-25 16:32:00,64.9,32.7,30.24,North,0,14.0,25.0,30,0.00,,,0.00,meteohub,2013-05-25 20:32:00,
2013-05-25 16:42:00,64.9,34.3,30.24,NW,315,6.0,21.0,32,0.00,,,0.00,meteohub,2013-05-25 20:42:00,
2013-05-25 16:52:00,64.9,32.7,30.24,North,0,1.0,16.0,30,0.00,,,0.00,meteohub,2013-05-25 20:52:00,
2013-05-25 17:02:00,64.9,32.7,30.24,North,0,2.0,20.0,30,0.00,,,0.00,meteohub,2013-05-25 21:02:00,
2013-05-25 17:12:00,66.0,33.6,30.24,North,0,4.0,16.0,30,0.00,,,0.00,meteohub,2013-05-25 21:12:00,
2013-05-25 17:22:00,66.0,33.6,30.24,NNW,337,2.0,19.0,30,0.00,,,0.00,meteohub,2013-05-25 21:22:00,
2013-05-25 17:32:00,66.0,33.6,30.24,North,0,6.0,19.0,30,0.00,,,0.00,meteohub,2013-05-25 21:32:00,
2013-05-25 17:42:00,66.0,34.5,30.24,North,0,3.0,17.0,31,0.00,,,0.00,meteohub,2013-05-25 21:42:00,
2013-05-25 17:52:00,66.0,32.9,30.24,NW,315,7.0,18.0,29,0.00,,,0.00,meteohub,2013-05-25 21:52:00,
2013-05-25 18:02:00,66.0,34.5,30.24,NW,315,6.0,18.0,31,0.00,,,0.00,meteohub,2013-05-25 22:02:00,
2013-05-25 18:12:00,64.9,33.6,30.24,NNW,337,2.0,14.0,31,0.00,,,0.00,meteohub,2013-05-25 22:12:00,
2013-05-25 18:22:00,66.0,34.5,30.24,North,0,5.0,14.0,31,0.00,,,0.00,meteohub,2013-05-25 22:22:00,
2013-05-25 18:32:00,66.0,33.6,30.24,North,0,12.0,16.0,30,0.00,,,0.00,meteohub,2013-05-25 22:32:00,
2013-05-25 18:42:00,64.9,32.7,30.24,NE,45,4.0,15.0,30,0.00,,,0.00,meteohub,2013-05-25 22:42:00,
2013-05-25 18:52:00,64.9,33.6,30.24,North,0,4.0,11.0,31,0.00,,,0.00,meteohub,2013-05-25 22:52:00,
2013-05-25 19:02:00,64.0,33.6,30.24,NW,315,9.0,11.0,32,0.00,,,0.00,meteohub,2013-05-25 23:02:00,
2013-05-25 19:12:00,63.0,33.4,30.24,NNW,337,5.0,15.0,33,0.00,,,0.00,meteohub,2013-05-25 23:12:00,
2013-05-25 19:22:00,63.0,34.2,30.24,North,0,5.0,16.0,34,0.00,,,0.00,meteohub,2013-05-25 23:22:00,
2013-05-25 19:32:00,63.0,33.4,30.24,NW,315,4.0,11.0,33,0.00,,,0.00,meteohub,2013-05-25 23:32:00,
2013-05-25 19:42:00,62.1,32.5,30.24,NW,315,2.0,16.0,33,0.00,,,0.00,meteohub,2013-05-25 23:42:00,
2013-05-25 19:52:00,62.1,34.2,30.24,NNW,337,1.0,13.0,35,0.00,,,0.00,meteohub,2013-05-25 23:52:00,
2013-05-25 20:02:00,62.1,34.2,30.24,NW,315,3.0,8.0,35,0.00,,,0.00,meteohub,2013-05-26 00:02:00,
2013-05-25 20:12:00,61.0,33.8,30.24,North,0,4.0,7.0,36,0.00,,,0.00,meteohub,2013-05-26 00:12:00,
2013-05-25 20:22:00,61.0,33.8,30.24,North,0,1.0,9.0,36,0.00,,,0.00,meteohub,2013-05-26 00:22:00,
2013-05-25 20:32:00,61.0,34.5,30.24,North,0,2.0,7.0,37,0.00,,,0.00,meteohub,2013-05-26 00:32:00,
2013-05-25 20:42:00,60.1,33.8,30.24,North,0,0.0,6.0,37,0.00,,,0.00,meteohub,2013-05-26 00:42:00,
2013-05-25 20:52:00,60.1,34.3,30.24,North,0,2.0,6.0,38,0.00,,,0.00,meteohub,2013-05-26 00:52:00,
2013-05-25 21:02:00,60.1,34.3,30.24,NW,315,2.0,6.0,38,0.00,,,0.00,meteohub,2013-05-26 01:02:00,
2013-05-25 21:12:00,59.0,34.2,30.24,North,0,3.0,7.0,39,0.00,,,0.00,meteohub,2013-05-26 01:12:00,
2013-05-25 21:22:00,59.0,34.2,30.24,NW,315,2.0,6.0,39,0.00,,,0.00,meteohub,2013-05-26 01:22:00,
2013-05-25 21:32:00,59.0,34.7,30.24,NNW,337,1.0,5.0,40,0.00,,,0.00,meteohub,2013-05-26 01:32:00,
2013-05-25 21:42:00,59.0,34.7,30.24,North,0,1.0,5.0,40,0.00,,,0.00,meteohub,2013-05-26 01:42:00,
2013-05-25 21:52:00,57.9,33.8,30.24,NW,315,1.0,3.0,40,0.00,,,0.00,meteohub,2013-05-26 01:52:00,
2013-05-25 22:02:00,57.9,34.3,30.25,West,270,0.0,4.0,41,0.00,,,0.00,meteohub,2013-05-26 02:02:00,
2013-05-25 22:12:00,57.9,34.3,30.25,North,0,1.0,4.0,41,0.00,,,0.00,meteohub,2013-05-26 02:12:00,
2013-05-25 22:22:00,57.9,34.9,30.25,NW,315,2.0,4.0,42,0.00,,,0.00,meteohub,2013-05-26 02:22:00,
2013-05-25 22:32:00,57.0,34.2,30.25,North,0,1.0,4.0,42,0.00,,,0.00,meteohub,2013-05-26 02:32:00,
2013-05-25 22:42:00,57.0,34.2,30.26,NNW,337,1.0,4.0,42,0.00,,,0.00,meteohub,2013-05-26 02:42:00,
2013-05-25 22:52:00,57.0,34.2,30.26,NW,315,2.0,4.0,42,0.00,,,0.00,meteohub,2013-05-26 02:52:00,
2013-05-25 23:02:00,57.0,34.7,30.26,North,0,1.0,9.0,43,0.00,,,0.00,meteohub,2013-05-26 03:02:00,
2013-05-25 23:12:00,57.0,34.2,30.26,NW,315,1.0,6.0,42,0.00,,,0.00,meteohub,2013-05-26 03:12:00,
2013-05-25 23:22:00,55.9,33.3,30.26,NW,315,2.0,4.0,42,0.00,,,0.00,meteohub,2013-05-26 03:22:00,
2013-05-25 23:32:00,55.9,32.5,30.26,North,0,1.0,6.0,41,0.00,,,0.00,meteohub,2013-05-26 03:32:00,
2013-05-25 23:42:00,55.9,33.3,30.26,NW,315,2.0,8.0,42,0.00,,,0.00,meteohub,2013-05-26 03:42:00,
2013-05-25 23:52:00,55.9,33.3,30.26,North,0,7.0,9.0,42,0.00,,,0.00,meteohub,2013-05-26 03:52:00,